Time;durP1;ratioP1;P1;durP2;ratioP2;P2;SDS_P1;SDS_P2;PMS_P1;PMS_P2;Temp;Humidity;BMP_temperature;BMP_pressure;BME280_temperature;BME280_humidity;BME280_pressure;Samples;Min_cycle;Max_cycle;Signal;HPM_P1;HPM_P2
2021/08/09 00:01:42;;;;;;;3.57;1.40;;;;;;;15.02;69.58;100683.88;5014921;28;20233;-81
2021/08/09 00:04:08;;;;;;;2.40;1.40;;;;;;;15.02;69.73;100683.88;5016356;28;20569;-81
2021/08/09 00:06:36;;;;;;;1.90;1.33;;;;;;;15.02;69.84;100691.09;5016784;28;20569;-81
2021/08/09 00:09:03;;;;;;;2.67;1.33;;;;;;;15.02;70.31;100689.25;5017625;28;20209;-81
2021/08/09 00:11:32;;;;;;;2.00;1.13;;;;;;;15.04;70.05;100687.31;5016733;28;20213;-82
2021/08/09 00:13:58;;;;;;;3.50;1.30;;;;;;;15.05;70.09;100682.78;5012816;28;20207;-82
2021/08/09 00:16:25;;;;;;;2.40;1.50;;;;;;;15.06;69.94;100671.91;5019811;28;20217;-81
2021/08/09 00:18:51;;;;;;;1.73;1.27;;;;;;;15.08;70.22;100683.38;5023995;28;20684;-81
2021/08/09 00:21:19;;;;;;;2.27;1.20;;;;;;;15.09;70.45;100674.34;5016242;28;20231;-81
2021/08/09 00:23:46;;;;;;;3.07;1.70;;;;;;;15.11;70.62;100679.59;5039193;22;20324;-78
2021/08/09 00:26:13;;;;;;;1.90;1.57;;;;;;;15.12;70.32;100674.09;5032616;28;20216;-78
2021/08/09 00:28:41;;;;;;;3.57;1.50;;;;;;;15.13;70.33;100674.97;5030365;28;20714;-78
2021/08/09 00:31:07;;;;;;;2.73;1.67;;;;;;;15.15;70.29;100675.69;5026932;28;20202;-78
2021/08/09 00:33:34;;;;;;;2.90;1.40;;;;;;;15.17;70.46;100673.72;5037049;28;20262;-79
2021/08/09 00:36:00;;;;;;;1.73;1.57;;;;;;;15.19;70.60;100677.16;5047906;22;20258;-77
2021/08/09 00:38:27;;;;;;;2.73;1.30;;;;;;;15.17;70.38;100679.94;5033015;28;20210;-77
2021/08/09 00:40:54;;;;;;;3.20;1.40;;;;;;;15.20;70.09;100679.72;5030259;28;20202;-77
2021/08/09 00:43:21;;;;;;;3.03;1.30;;;;;;;15.19;70.41;100678.00;5032902;28;20212;-77
2021/08/09 00:45:50;;;;;;;1.97;1.53;;;;;;;15.20;70.27;100682.38;5031080;28;20690;-76
2021/08/09 00:48:16;;;;;;;2.13;1.20;;;;;;;15.21;70.29;100681.41;5014902;28;20544;-77
2021/08/09 00:50:43;;;;;;;2.53;1.40;;;;;;;15.22;70.21;100677.75;5016624;28;20215;-77
2021/08/09 00:53:09;;;;;;;1.87;1.30;;;;;;;15.22;70.53;100677.75;5008708;28;20210;-77
2021/08/09 00:55:37;;;;;;;2.10;1.40;;;;;;;15.24;70.24;100672.22;5017553;28;20210;-77
2021/08/09 00:58:04;;;;;;;3.07;1.30;;;;;;;15.23;70.04;100674.06;5016080;28;20208;-78
2021/08/09 01:00:30;;;;;;;2.60;1.50;;;;;;;15.23;70.51;100679.44;5010488;28;20215;-77
2021/08/09 01:02:58;;;;;;;3.13;1.40;;;;;;;15.23;70.36;100682.09;5024609;28;20234;-76
2021/08/09 01:05:25;;;;;;;3.10;2.00;;;;;;;15.23;70.33;100679.44;5015358;28;20206;-77
2021/08/09 01:08:02;;;;;;;2.70;1.83;;;;;;;15.24;70.27;100688.31;5016633;28;20232;-77
2021/08/09 01:10:32;;;;;;;3.37;1.87;;;;;;;15.24;70.31;100685.66;5016033;28;20203;-77
2021/08/09 01:13:05;;;;;;;3.07;1.60;;;;;;;15.24;70.55;100689.19;5015072;28;20204;-77
2021/08/09 01:15:36;;;;;;;2.60;1.43;;;;;;;15.24;70.56;100697.22;5016513;28;20790;-77
2021/08/09 01:18:06;;;;;;;2.70;1.50;;;;;;;15.24;70.90;100691.88;5008700;28;20207;-77
2021/08/09 01:20:46;;;;;;;2.67;1.30;;;;;;;15.24;70.65;100691.00;5018915;28;20211;-77
2021/08/09 01:23:23;;;;;;;2.40;1.27;;;;;;;15.23;70.54;100697.34;5013581;28;20222;-77
2021/08/09 01:25:54;;;;;;;4.17;1.83;;;;;;;15.23;70.55;100689.31;5023340;28;20604;-77
2021/08/09 01:28:25;;;;;;;2.83;1.70;;;;;;;15.24;70.91;100697.22;5019364;28;20217;-77
2021/08/09 01:30:55;;;;;;;2.27;1.67;;;;;;;15.24;71.04;100704.44;5008150;28;20210;-77
2021/08/09 01:33:23;;;;;;;3.40;1.80;;;;;;;15.24;70.96;100702.59;5016780;28;20295;-77
2021/08/09 01:35:52;;;;;;;2.80;1.60;;;;;;;15.25;70.63;100704.31;5013499;28;20234;-77
2021/08/09 01:38:21;;;;;;;4.17;1.93;;;;;;;15.27;70.95;100710.41;5019998;28;20213;-76
2021/08/09 01:40:49;;;;;;;3.70;1.90;;;;;;;15.27;70.66;100714.91;5010196;28;20218;-77
2021/08/09 01:43:17;;;;;;;6.13;1.60;;;;;;;15.28;70.60;100716.63;5010289;28;20223;-77
2021/08/09 01:45:45;;;;;;;2.60;1.50;;;;;;;15.29;70.85;100716.50;5014035;28;20203;-76
2021/08/09 01:48:12;;;;;;;2.60;1.40;;;;;;;15.32;70.82;100726.13;5018379;28;20210;-77
2021/08/09 01:50:39;;;;;;;1.97;1.50;;;;;;;15.34;70.89;100726.00;5015136;28;20200;-75
2021/08/09 01:53:06;;;;;;;4.13;1.67;;;;;;;15.35;70.68;100727.72;5006866;28;20200;-77
2021/08/09 01:55:33;;;;;;;3.70;1.63;;;;;;;15.34;70.79;100728.69;5019486;28;20214;-77
2021/08/09 01:58:00;;;;;;;3.07;1.53;;;;;;;15.33;70.88;100733.22;5014692;28;20214;-77
2021/08/09 02:00:29;;;;;;;2.57;1.63;;;;;;;15.33;71.12;100735.03;5012531;28;20681;-78
2021/08/09 02:02:57;;;;;;;6.17;1.83;;;;;;;15.32;71.35;100727.97;5008865;28;20277;-77
2021/08/09 02:05:25;;;;;;;3.40;1.57;;;;;;;15.30;71.10;100728.09;5009841;28;20590;-77
2021/08/09 02:07:52;;;;;;;3.10;1.50;;;;;;;15.29;71.06;100731.75;5013592;28;20320;-76
2021/08/09 02:10:22;;;;;;;2.60;1.50;;;;;;;15.23;71.06;100729.56;5017222;28;20223;-77
2021/08/09 02:12:54;;;;;;;3.87;1.60;;;;;;;15.18;71.51;100721.91;5015931;28;20797;-77
2021/08/09 02:15:27;;;;;;;2.93;1.73;;;;;;;15.14;71.43;100731.16;5013469;28;20210;-78
2021/08/09 02:18:03;;;;;;;3.30;1.87;;;;;;;15.09;71.37;100725.31;5014280;28;20226;-77
2021/08/09 02:20:33;;;;;;;2.03;1.83;;;;;;;15.06;72.05;100724.69;5011282;28;20210;-76
2021/08/09 02:23:04;;;;;;;4.30;1.60;;;;;;;15.02;71.87;100724.13;5021192;28;20233;-77
2021/08/09 02:25:34;;;;;;;4.17;1.67;;;;;;;15.02;72.04;100724.13;5018442;28;20207;-78
2021/08/09 02:28:06;;;;;;;3.63;1.80;;;;;;;15.01;72.38;100721.56;5020298;28;20664;-77
2021/08/09 02:30:34;;;;;;;3.60;1.77;;;;;;;14.98;72.61;100728.03;5014194;28;20680;-77
2021/08/09 02:33:04;;;;;;;3.33;1.70;;;;;;;14.95;72.68;100725.59;5002981;28;20200;-77
2021/08/09 02:35:32;;;;;;;3.93;2.17;;;;;;;14.91;72.27;100724.97;5006060;28;20213;-76
2021/08/09 02:38:00;;;;;;;3.13;1.90;;;;;;;14.90;72.79;100725.09;5005633;28;20223;-77
2021/08/09 02:40:27;;;;;;;3.73;2.00;;;;;;;14.86;72.46;100729.00;5007735;28;20680;-77
2021/08/09 02:42:56;;;;;;;3.00;2.00;;;;;;;14.81;73.01;100733.88;5000708;28;20230;-77
2021/08/09 02:45:22;;;;;;;2.10;1.87;;;;;;;14.76;72.84;100728.03;4999868;28;20230;-77
2021/08/09 02:47:51;;;;;;;4.80;1.93;;;;;;;14.74;73.47;100738.00;5006223;28;20233;-77
2021/08/09 02:50:19;;;;;;;5.93;1.93;;;;;;;14.70;73.53;100739.22;5007629;28;20210;-78
2021/08/09 02:52:47;;;;;;;3.70;1.80;;;;;;;14.69;73.29;100740.22;5006918;28;20199;-77
2021/08/09 02:55:16;;;;;;;5.00;2.20;;;;;;;14.66;73.60;100737.78;5003304;28;20203;-77
2021/08/09 02:57:44;;;;;;;3.37;1.60;;;;;;;14.64;73.50;100737.91;5003457;28;20219;-77
2021/08/09 03:00:11;;;;;;;2.50;1.87;;;;;;;14.61;73.69;100737.28;5006807;28;20218;-77
2021/08/09 03:02:42;;;;;;;3.80;1.80;;;;;;;14.57;74.26;100732.16;5003946;28;20223;-77
2021/08/09 03:05:11;;;;;;;3.33;1.83;;;;;;;14.53;73.81;100737.88;4999968;28;20206;-77
2021/08/09 03:07:41;;;;;;;3.73;1.80;;;;;;;14.49;73.88;100739.97;5002781;28;20238;-77
2021/08/09 03:10:10;;;;;;;2.57;1.73;;;;;;;14.47;74.05;100739.22;5006150;28;20213;-77
2021/08/09 03:12:37;;;;;;;2.93;1.80;;;;;;;14.44;74.42;100738.59;5002663;28;20692;-77
2021/08/09 03:15:05;;;;;;;5.07;1.80;;;;;;;14.43;74.62;100742.25;5005664;28;20584;-77
2021/08/09 03:17:31;;;;;;;2.87;1.90;;;;;;;14.40;74.61;100740.66;5003236;28;20226;-77
2021/08/09 03:19:58;;;;;;;2.90;1.70;;;;;;;14.39;75.06;100735.38;5009126;28;20217;-77
2021/08/09 03:22:25;;;;;;;3.83;1.90;;;;;;;14.37;75.06;100745.38;5011943;28;20229;-77
2021/08/09 03:24:52;;;;;;;3.23;2.17;;;;;;;14.36;75.40;100743.66;5007434;28;20207;-77
2021/08/09 03:27:19;;;;;;;2.70;1.80;;;;;;;14.35;75.09;100745.47;5023173;28;20503;-77
2021/08/09 03:29:45;;;;;;;4.10;1.80;;;;;;;14.35;75.49;100748.16;5027617;28;20217;-77
2021/08/09 03:32:12;;;;;;;4.30;1.80;;;;;;;14.36;75.76;100738.31;5009171;28;20212;-78
2021/08/09 03:34:39;;;;;;;2.77;2.00;;;;;;;14.35;75.56;100745.47;5006487;28;20207;-77
2021/08/09 03:37:06;;;;;;;3.90;1.73;;;;;;;14.37;75.38;100748.03;5011132;28;20714;-77
2021/08/09 03:39:32;;;;;;;3.13;1.73;;;;;;;14.37;75.53;100753.41;5006087;28;20225;-77
2021/08/09 03:42:00;;;;;;;3.07;1.60;;;;;;;14.37;75.74;100748.03;5019197;28;20679;-77
2021/08/09 03:44:27;;;;;;;5.27;2.30;;;;;;;14.38;75.34;100744.41;5025670;28;20206;-78
2021/08/09 03:46:53;;;;;;;2.70;1.70;;;;;;;14.40;75.57;100747.81;5025444;28;20222;-76
2021/08/09 03:49:20;;;;;;;2.53;1.60;;;;;;;14.40;75.89;100748.69;5009173;28;20207;-77
2021/08/09 03:51:46;;;;;;;5.67;1.63;;;;;;;14.44;75.91;100762.72;5017889;28;20218;-77
2021/08/09 03:54:13;;;;;;;3.37;2.00;;;;;;;14.45;75.60;100759.94;5012196;28;20211;-77
2021/08/09 03:56:39;;;;;;;3.47;1.80;;;;;;;14.47;75.41;100763.34;4999431;28;20231;-77
2021/08/09 03:59:07;;;;;;;2.23;1.23;;;;;;;14.49;75.58;100769.44;5015720;28;20237;-77
2021/08/09 04:01:38;;;;;;;7.33;2.40;;;;;;;14.51;74.99;100775.50;5009096;28;20786;-77
2021/08/09 04:04:05;;;;;;;3.33;1.90;;;;;;;14.53;75.04;100770.88;5005754;28;20263;-77
2021/08/09 04:06:32;;;;;;;3.53;1.93;;;;;;;14.54;74.82;100772.59;5009137;28;20720;-77
2021/08/09 04:08:59;;;;;;;2.27;1.90;;;;;;;14.55;74.90;100778.81;5016954;28;20213;-77
2021/08/09 04:11:25;;;;;;;2.63;1.63;;;;;;;14.55;74.93;100773.44;5014164;28;20205;-77
2021/08/09 04:13:52;;;;;;;1.87;1.60;;;;;;;14.54;74.88;100774.41;5015538;28;20198;-76
2021/08/09 04:16:20;;;;;;;3.47;1.60;;;;;;;14.54;74.95;100767.22;5019274;28;20242;-77
2021/08/09 04:18:46;;;;;;;2.80;1.63;;;;;;;14.53;74.97;100781.59;5012956;28;20203;-77
2021/08/09 04:21:13;;;;;;;5.50;1.73;;;;;;;14.53;75.13;100778.06;5023627;28;20684;-76
2021/08/09 04:23:39;;;;;;;2.73;1.60;;;;;;;14.53;75.49;100780.75;5021505;28;20230;-77
2021/08/09 04:26:06;;;;;;;2.93;1.93;;;;;;;14.53;75.26;100776.25;5024784;28;20614;-77
2021/08/09 04:28:32;;;;;;;2.30;1.70;;;;;;;14.52;75.47;100777.22;5018985;28;20207;-77
2021/08/09 04:30:59;;;;;;;6.03;1.97;;;;;;;14.53;75.49;100786.13;5022338;28;20682;-78
2021/08/09 04:33:27;;;;;;;2.80;1.97;;;;;;;14.53;75.55;100781.59;5014736;28;20211;-77
2021/08/09 04:35:53;;;;;;;3.07;1.77;;;;;;;14.52;75.53;100790.63;5026199;28;20230;-77
2021/08/09 04:38:20;;;;;;;3.87;1.97;;;;;;;14.52;75.66;100793.28;5022508;28;20220;-77
2021/08/09 04:40:46;;;;;;;3.77;2.07;;;;;;;14.54;75.95;100794.03;5015854;28;20211;-77
2021/08/09 04:43:13;;;;;;;2.70;1.90;;;;;;;14.54;76.03;100794.03;5023052;28;20226;-77
2021/08/09 04:45:39;;;;;;;5.37;2.13;;;;;;;14.56;75.71;100786.72;5014923;28;20214;-77
2021/08/09 04:48:06;;;;;;;3.40;2.10;;;;;;;14.56;76.19;100792.09;5025541;28;20232;-77
2021/08/09 04:50:35;;;;;;;3.20;1.80;;;;;;;14.59;75.57;100791.88;5015544;28;20552;-77
2021/08/09 04:53:01;;;;;;;2.03;1.77;;;;;;;14.61;75.83;100793.56;5013638;28;20206;-77
2021/08/09 04:55:28;;;;;;;2.83;1.77;;;;;;;14.64;76.10;100793.34;5006096;28;20674;-75
2021/08/09 04:57:54;;;;;;;2.53;2.03;;;;;;;14.68;75.86;100794.81;5006298;28;20222;-77
2021/08/09 05:00:21;;;;;;;4.50;2.07;;;;;;;14.70;75.86;100799.06;5018068;28;20203;-77
2021/08/09 05:02:47;;;;;;;2.90;1.53;;;;;;;14.73;75.76;100795.28;5007756;28;20227;-77
2021/08/09 05:05:14;;;;;;;3.37;1.90;;;;;;;14.74;75.48;100799.69;5017123;28;20577;-77
2021/08/09 05:07:42;;;;;;;2.13;1.73;;;;;;;14.75;75.28;100794.19;5010290;28;20235;-76
2021/08/09 05:10:09;;;;;;;2.97;1.60;;;;;;;14.78;75.39;100796.63;5012229;28;20209;-78
2021/08/09 05:12:36;;;;;;;2.83;1.70;;;;;;;14.80;75.50;100801.88;5011963;28;20209;-77
2021/08/09 05:15:03;;;;;;;6.40;1.83;;;;;;;14.82;75.58;100798.13;5020708;28;20214;-77
2021/08/09 05:17:29;;;;;;;3.07;1.80;;;;;;;14.85;75.32;100808.59;5003098;28;20285;-76
2021/08/09 05:19:56;;;;;;;2.87;1.80;;;;;;;14.89;75.16;100803.81;5003131;28;20210;-78
2021/08/09 05:22:22;;;;;;;3.00;1.60;;;;;;;14.90;75.23;100805.53;5014131;28;20259;-77
2021/08/09 05:24:50;;;;;;;4.37;2.13;;;;;;;14.92;75.18;100803.59;5018596;28;20573;-77
2021/08/09 05:27:17;;;;;;;3.57;2.00;;;;;;;14.93;75.20;100797.25;5019705;28;20237;-77
2021/08/09 05:29:43;;;;;;;3.60;1.70;;;;;;;14.96;75.62;100805.06;5026526;28;20233;-77
2021/08/09 05:32:10;;;;;;;2.53;1.70;;;;;;;14.97;75.46;100803.22;5014095;28;20203;-77
2021/08/09 05:34:37;;;;;;;2.50;1.60;;;;;;;14.99;75.41;100807.50;5022188;28;20210;-77
2021/08/09 05:37:04;;;;;;;4.00;2.23;;;;;;;15.01;75.36;100805.56;5010444;28;20238;-77
2021/08/09 05:39:30;;;;;;;2.93;1.67;;;;;;;15.02;75.52;100804.59;5012752;28;20209;-76
2021/08/09 05:41:58;;;;;;;2.73;1.80;;;;;;;15.06;75.23;100802.50;5025044;28;20214;-76
2021/08/09 05:44:25;;;;;;;4.40;2.10;;;;;;;15.09;75.11;100800.41;5018710;28;20322;-77
2021/08/09 05:46:51;;;;;;;2.43;2.03;;;;;;;15.12;75.32;100800.19;5019856;28;20226;-77
2021/08/09 05:49:18;;;;;;;7.50;2.53;;;;;;;15.14;75.48;100800.06;5012604;28;20206;-75
2021/08/09 05:51:44;;;;;;;2.77;1.60;;;;;;;15.18;75.00;100794.34;5012391;28;20205;-78
2021/08/09 05:54:11;;;;;;;3.10;1.90;;;;;;;15.22;75.15;100793.13;5015158;28;20210;-78
2021/08/09 05:56:37;;;;;;;3.87;1.80;;;;;;;15.24;75.08;100788.47;5007851;28;20591;-77
2021/08/09 05:59:05;;;;;;;3.87;1.87;;;;;;;15.28;74.65;100795.28;4999931;28;20291;-77
2021/08/09 06:01:32;;;;;;;3.30;1.83;;;;;;;15.35;74.75;100805.53;5004880;28;20268;-77
2021/08/09 06:03:59;;;;;;;5.30;2.40;;;;;;;15.38;74.50;100811.53;5007730;28;20223;-77
2021/08/09 06:06:25;;;;;;;3.30;2.37;;;;;;;15.43;74.40;100813.81;5010487;28;20223;-77
2021/08/09 06:08:52;;;;;;;1.97;1.60;;;;;;;15.46;74.34;100802.81;5009439;28;20562;-77
2021/08/09 06:11:21;;;;;;;3.97;1.90;;;;;;;15.50;74.34;100813.19;5009536;28;20207;-77
2021/08/09 06:13:48;;;;;;;3.23;1.77;;;;;;;15.53;73.94;100807.59;5006573;28;20238;-78
2021/08/09 06:16:16;;;;;;;3.37;1.67;;;;;;;15.58;73.99;100805.41;5007132;28;20246;-78
2021/08/09 06:18:42;;;;;;;3.43;1.80;;;;;;;15.63;73.65;100811.25;5009956;28;20596;-77
2021/08/09 06:21:09;;;;;;;3.27;1.83;;;;;;;15.66;73.87;100804.78;5008230;28;20207;-77
2021/08/09 06:23:35;;;;;;;3.47;1.70;;;;;;;15.71;73.49;100813.31;5006661;28;20223;-78
2021/08/09 06:26:02;;;;;;;3.07;1.93;;;;;;;15.75;73.66;100809.41;5011173;28;20235;-76
2021/08/09 06:28:28;;;;;;;4.20;2.07;;;;;;;15.78;73.40;100806.44;5006300;28;20203;-78
2021/08/09 06:30:55;;;;;;;3.13;1.70;;;;;;;15.83;72.89;100803.38;5003414;28;20213;-77
2021/08/09 06:33:23;;;;;;;4.97;2.00;;;;;;;15.87;72.66;100812.91;5009558;28;20680;-75
2021/08/09 06:38:16;;;;;;;2.00;1.80;;;;;;;15.93;72.53;100824.00;5051371;22;20237;-78
2021/08/09 06:40:44;;;;;;;4.53;1.60;;;;;;;15.97;72.51;100828.09;5031982;28;20207;-78
2021/08/09 06:43:11;;;;;;;2.83;1.87;;;;;;;15.98;72.38;100829.81;5030266;28;20629;-78
2021/08/09 06:45:41;;;;;;;3.77;1.67;;;;;;;16.02;72.09;100835.78;5029550;28;20207;-78
2021/08/09 06:48:07;;;;;;;3.43;1.60;;;;;;;16.04;71.90;100832.97;5019591;28;20230;-78
2021/08/09 06:50:35;;;;;;;2.83;1.60;;;;;;;16.07;71.76;100835.41;5010830;28;20290;-77
2021/08/09 06:53:02;;;;;;;3.97;1.90;;;;;;;16.09;71.41;100842.38;5011259;28;20212;-78
2021/08/09 06:55:29;;;;;;;3.60;1.83;;;;;;;16.11;71.06;100837.72;5007838;28;20593;-78
2021/08/09 06:57:56;;;;;;;2.77;1.90;;;;;;;16.15;71.23;100849.91;5006150;28;20524;-77
2021/08/09 07:00:22;;;;;;;3.10;1.70;;;;;;;16.21;71.03;100854.78;5007590;28;20206;-78
2021/08/09 07:02:49;;;;;;;3.20;1.47;;;;;;;16.24;70.78;100854.53;5003715;28;20213;-77
2021/08/09 07:05:15;;;;;;;3.10;1.70;;;;;;;16.31;71.03;100861.06;5008714;28;20239;-78
2021/08/09 07:07:44;;;;;;;7.23;1.87;;;;;;;16.40;71.29;100847.84;5005170;28;20310;-77
2021/08/09 07:10:11;;;;;;;4.40;1.63;;;;;;;16.53;71.64;100864.66;5004560;28;20250;-78
2021/08/09 07:12:38;;;;;;;3.13;1.77;;;;;;;16.69;71.72;100864.22;5016224;28;20214;-77
2021/08/09 07:15:06;;;;;;;3.40;1.90;;;;;;;16.80;71.16;100866.88;5010506;28;20213;-78
2021/08/09 07:17:39;;;;;;;3.20;1.80;;;;;;;16.90;71.05;100868.63;5001337;28;20238;-77
2021/08/09 07:20:08;;;;;;;2.57;1.70;;;;;;;17.05;70.59;100866.44;5009925;28;20207;-78
2021/08/09 07:22:34;;;;;;;1.87;1.40;;;;;;;17.15;69.95;100866.50;5012250;28;20565;-79
2021/08/09 07:25:02;;;;;;;2.63;1.40;;;;;;;17.30;69.71;100870.53;5009211;28;20236;-79
2021/08/09 07:27:28;;;;;;;3.97;1.70;;;;;;;17.45;69.38;100862.94;5009609;28;20239;-78
2021/08/09 07:29:55;;;;;;;3.40;1.80;;;;;;;17.61;68.80;100857.88;4999886;28;20222;-78
2021/08/09 07:32:21;;;;;;;3.17;1.50;;;;;;;17.76;68.05;100856.53;5010395;28;20225;-78
2021/08/09 07:34:48;;;;;;;2.07;1.13;;;;;;;17.91;67.28;100854.31;5017586;28;20213;-78
2021/08/09 07:37:14;;;;;;;1.73;1.40;;;;;;;18.04;66.44;100852.22;5004110;28;20550;-78
2021/08/09 07:39:41;;;;;;;2.73;1.70;;;;;;;18.17;65.45;100849.22;5000906;28;20214;-78
2021/08/09 07:42:09;;;;;;;2.03;1.37;;;;;;;18.26;64.78;100843.84;5010842;28;20571;-77
2021/08/09 07:44:35;;;;;;;2.83;1.37;;;;;;;18.31;64.55;100844.25;5010377;28;20696;-77
2021/08/09 07:47:02;;;;;;;2.63;1.13;;;;;;;18.33;63.47;100839.59;5009179;28;20241;-78
2021/08/09 07:49:29;;;;;;;4.77;1.63;;;;;;;18.35;63.28;100842.13;5010794;28;20207;-78
2021/08/09 07:51:55;;;;;;;2.53;1.13;;;;;;;18.35;63.12;100847.53;5001640;28;20208;-76
2021/08/09 07:54:24;;;;;;;2.47;1.30;;;;;;;18.36;63.40;100852.78;5008202;28;20408;-77
2021/08/09 07:56:51;;;;;;;2.17;1.57;;;;;;;18.38;62.68;100852.66;5017197;28;20620;-78
2021/08/09 07:59:21;;;;;;;2.20;1.40;;;;;;;18.37;62.92;100864.44;5010051;28;20700;-76
2021/08/09 08:01:48;;;;;;;3.10;1.40;;;;;;;18.46;63.66;100854.63;5012440;28;20200;-76
2021/08/09 08:04:14;;;;;;;2.13;1.40;;;;;;;18.54;63.82;100858.31;5012201;28;20240;-76
2021/08/09 08:06:41;;;;;;;3.17;1.63;;;;;;;18.65;64.11;100858.19;5010397;28;20223;-76
2021/08/09 08:09:07;;;;;;;3.10;1.60;;;;;;;18.77;63.97;100867.00;5012756;28;20244;-76
2021/08/09 08:11:35;;;;;;;2.47;1.50;;;;;;;18.90;63.86;100870.22;5002925;28;20206;-76
2021/08/09 08:14:02;;;;;;;3.53;1.67;;;;;;;18.99;63.26;100866.63;5017382;28;20206;-77
2021/08/09 08:16:30;;;;;;;2.50;1.80;;;;;;;19.04;62.67;100872.44;5015269;28;20235;-76
2021/08/09 08:18:56;;;;;;;2.90;1.50;;;;;;;19.08;62.49;100859.53;5004851;28;20211;-76
2021/08/09 08:21:23;;;;;;;2.70;1.17;;;;;;;19.08;61.73;100873.00;5012102;28;20670;-77
2021/08/09 08:23:50;;;;;;;3.20;1.37;;;;;;;19.07;61.58;100874.00;5004277;28;20722;-77
2021/08/09 08:26:16;;;;;;;3.77;1.77;;;;;;;19.14;61.34;100872.44;5007610;28;20227;-76
2021/08/09 08:28:43;;;;;;;3.27;1.50;;;;;;;19.14;61.09;100872.44;5012050;28;20205;-77
2021/08/09 08:31:09;;;;;;;2.00;1.00;;;;;;;19.19;61.00;100870.13;5011801;28;20215;-76
2021/08/09 08:33:37;;;;;;;2.87;1.40;;;;;;;19.25;60.64;100874.09;5007461;28;20216;-76
2021/08/09 08:36:04;;;;;;;3.10;1.73;;;;;;;19.29;60.20;100881.75;5001613;28;20208;-76
2021/08/09 08:38:30;;;;;;;4.50;1.47;;;;;;;19.32;60.13;100878.78;5008934;28;20288;-77
2021/08/09 08:40:59;;;;;;;5.27;1.30;;;;;;;19.40;60.58;100886.97;5007151;28;20671;-76
2021/08/09 08:43:28;;;;;;;3.33;1.43;;;;;;;19.55;60.46;100883.81;5014759;28;20234;-76
2021/08/09 08:45:56;;;;;;;2.90;1.33;;;;;;;19.75;60.09;100886.28;5006454;28;20673;-77
2021/08/09 08:48:24;;;;;;;3.17;1.40;;;;;;;19.94;59.36;100879.91;5012244;28;20214;-77
2021/08/09 08:50:52;;;;;;;1.87;1.30;;;;;;;19.99;58.25;100883.00;5014738;28;20211;-77
2021/08/09 08:53:19;;;;;;;3.70;1.40;;;;;;;20.06;58.66;100885.97;5014952;28;20215;-77
2021/08/09 08:55:46;;;;;;;2.60;1.40;;;;;;;20.09;58.00;100889.19;5015044;28;20562;-76
2021/08/09 08:58:13;;;;;;;4.87;1.57;;;;;;;20.10;58.02;100879.22;5013952;28;20229;-77
2021/08/09 09:00:41;;;;;;;2.20;1.27;;;;;;;20.14;57.90;100871.66;5011170;28;20202;-77
2021/08/09 09:03:17;;;;;;;1.87;1.23;;;;;;;20.21;58.02;100876.31;5007069;28;20213;-76
2021/08/09 09:05:58;;;;;;;3.87;1.30;;;;;;;20.26;58.00;100873.13;5010840;28;20219;-77
2021/08/09 09:08:36;;;;;;;3.33;1.30;;;;;;;20.26;57.61;100879.38;5007299;28;20201;-77
2021/08/09 09:11:03;;;;;;;3.20;1.27;;;;;;;20.27;57.29;100872.97;5005492;28;20215;-77
2021/08/09 09:13:30;;;;;;;3.30;1.37;;;;;;;20.30;56.83;100886.19;5012418;28;20212;-77
2021/08/09 09:15:59;;;;;;;3.73;1.50;;;;;;;20.26;57.24;100883.94;5012440;28;20222;-77
2021/08/09 09:18:27;;;;;;;2.77;1.33;;;;;;;20.23;57.10;100887.00;5009520;28;20213;-76
2021/08/09 09:20:54;;;;;;;1.90;1.47;;;;;;;20.20;56.89;100881.88;5011890;28;20671;-78
2021/08/09 09:23:24;;;;;;;4.13;1.40;;;;;;;20.19;57.20;100880.19;5015452;28;20256;-77
2021/08/09 09:25:52;;;;;;;3.47;1.60;;;;;;;20.22;57.36;100891.53;5012526;28;20279;-77
2021/08/09 09:28:23;;;;;;;2.30;1.17;;;;;;;20.22;57.04;100896.94;5009469;28;20214;-76
2021/08/09 09:30:51;;;;;;;4.20;2.00;;;;;;;20.23;56.93;100892.41;5011456;28;20214;-77
2021/08/09 09:33:17;;;;;;;3.00;1.60;;;;;;;20.27;56.97;100905.44;5007095;28;20283;-77
2021/08/09 09:35:50;;;;;;;3.57;1.73;;;;;;;20.28;56.91;100901.72;4999938;28;20560;-77
2021/08/09 09:38:17;;;;;;;3.90;1.63;;;;;;;20.34;57.15;100897.56;5011243;28;20219;-77
2021/08/09 09:40:45;;;;;;;4.77;1.60;;;;;;;20.34;56.72;100895.72;5003881;28;20915;-77
2021/08/09 09:43:16;;;;;;;2.70;1.50;;;;;;;20.34;56.95;100903.81;5015247;28;20211;-77
2021/08/09 09:45:51;;;;;;;3.13;1.37;;;;;;;20.38;56.83;100904.41;5013144;28;20230;-76
2021/08/09 09:48:18;;;;;;;3.33;1.57;;;;;;;20.44;57.09;100906.47;5013452;28;20581;-77
2021/08/09 09:50:45;;;;;;;2.17;1.27;;;;;;;20.48;56.86;100907.03;5006025;28;20209;-77
2021/08/09 09:53:17;;;;;;;1.63;1.17;;;;;;;20.49;56.63;100906.88;5007198;28;20205;-77
2021/08/09 09:55:47;;;;;;;3.63;1.50;;;;;;;20.52;56.47;100903.00;5010965;28;20869;-77
2021/08/09 09:58:14;;;;;;;2.50;1.17;;;;;;;20.56;56.56;100905.25;5009539;28;20227;-77
2021/08/09 10:00:42;;;;;;;2.90;1.40;;;;;;;20.58;57.02;100903.25;5008621;28;20214;-76
2021/08/09 10:03:10;;;;;;;3.30;1.30;;;;;;;20.62;56.85;100904.63;5017534;28;20206;-77
2021/08/09 10:05:39;;;;;;;2.87;1.40;;;;;;;20.61;56.47;100910.19;5009116;28;20239;-78
2021/08/09 10:08:09;;;;;;;4.10;1.27;;;;;;;20.60;56.38;100906.63;5008423;28;20263;-78
2021/08/09 10:10:38;;;;;;;3.67;1.60;;;;;;;20.59;56.23;100909.50;5009315;28;20232;-76
2021/08/09 10:13:07;;;;;;;2.13;1.40;;;;;;;20.58;55.85;100907.81;5013659;28;20462;-76
2021/08/09 10:15:33;;;;;;;4.23;1.30;;;;;;;20.57;55.96;100909.66;5020773;28;20573;-77
2021/08/09 10:18:01;;;;;;;2.63;1.33;;;;;;;20.60;56.01;100903.09;5010037;28;20240;-77
2021/08/09 10:20:27;;;;;;;2.10;1.20;;;;;;;20.65;56.10;100906.16;5009872;28;20214;-77
2021/08/09 10:22:58;;;;;;;2.03;1.40;;;;;;;20.67;56.26;100902.28;5009726;28;20223;-77
2021/08/09 10:25:44;;;;;;;3.40;1.50;;;;;;;20.68;55.70;100912.13;5007606;28;20223;-77
2021/08/09 10:28:12;;;;;;;2.43;1.40;;;;;;;20.68;55.86;100913.97;5020194;28;20283;-77
2021/08/09 10:30:38;;;;;;;2.47;1.30;;;;;;;20.69;55.79;100894.88;5009539;28;20689;-77
2021/08/09 10:33:08;;;;;;;3.60;1.33;;;;;;;20.74;55.36;100902.53;5010142;28;20623;-77
2021/08/09 10:36:04;;;;;;;2.50;1.23;;;;;;;20.77;55.76;100902.22;5008707;28;20232;-77
2021/08/09 10:38:43;;;;;;;3.97;1.50;;;;;;;20.82;55.92;100904.44;5004737;28;20759;-76
2021/08/09 10:41:31;;;;;;;1.80;1.40;;;;;;;20.95;55.94;100905.75;5004278;28;20300;-77
2021/08/09 10:44:22;;;;;;;2.10;1.10;;;;;;;21.02;54.87;100900.53;5001032;28;20213;-77
2021/08/09 10:46:49;;;;;;;2.20;1.20;;;;;;;21.06;54.81;100902.78;5007478;28;20273;-77
2021/08/09 10:49:55;;;;;;;2.90;1.30;;;;;;;21.12;54.57;100895.88;5006702;28;20220;-78
2021/08/09 10:52:39;;;;;;;2.70;1.10;;;;;;;21.19;54.02;100894.22;5006538;28;20671;-76
2021/08/09 10:55:42;;;;;;;2.90;1.30;;;;;;;21.29;54.34;100895.00;5009959;28;20229;-78
2021/08/09 10:58:09;;;;;;;1.47;1.30;;;;;;;21.45;54.43;100892.38;5016029;28;20236;-77
2021/08/09 11:03:33;;;;;;;2.45;1.15;;;;;;;21.71;53.75;100891.47;5073777;28;20562;-76
2021/08/09 11:05:59;;;;;;;1.23;1.00;;;;;;;21.77;53.24;100886.25;5085822;28;20210;-75
2021/08/09 11:08:32;;;;;;;2.88;1.23;;;;;;;21.84;52.77;100886.47;5079967;28;20215;-77
2021/08/09 11:11:07;;;;;;;1.20;1.10;;;;;;;21.87;52.38;100894.25;5081357;28;20203;-77
2021/08/09 11:14:16;;;;;;;3.97;1.30;;;;;;;21.93;52.16;100892.75;5082323;28;20204;-77
2021/08/09 11:16:43;;;;;;;3.03;1.00;;;;;;;21.99;51.33;100892.94;5056177;22;20231;-85
2021/08/09 11:19:20;;;;;;;2.53;0.95;;;;;;;22.05;50.48;100886.88;5038299;28;20577;-86
2021/08/09 11:21:50;;;;;;;3.15;1.38;;;;;;;22.10;50.00;100894.50;5039315;28;20638;-84
2021/08/09 11:24:31;;;;;;;2.88;1.10;;;;;;;22.14;49.58;100887.75;5041684;28;20784;-84
2021/08/09 11:27:04;;;;;;;2.08;0.80;;;;;;;22.15;49.92;100890.31;5041681;28;20206;-85
2021/08/09 11:29:51;;;;;;;2.45;1.00;;;;;;;22.23;49.78;100888.59;5049445;28;20566;-85
2021/08/09 11:32:35;;;;;;;1.88;0.93;;;;;;;22.28;49.89;100888.97;5049765;28;20645;-85
2021/08/09 11:35:04;;;;;;;2.05;1.10;;;;;;;22.36;49.69;100889.84;5049489;28;20221;-85
2021/08/09 11:37:31;;;;;;;2.05;0.95;;;;;;;22.42;49.35;100891.00;5049207;28;20224;-85